createdAt,value
2018-01-28T00:02:10.615Z,29.67
2018-01-28T00:04:36.563Z,25.85
2018-01-28T00:07:02.536Z,36.50
2018-01-28T00:09:28.469Z,25.23
2018-01-28T00:11:54.570Z,28.73
2018-01-28T00:14:20.552Z,34.88
2018-01-28T00:16:46.486Z,27.55
2018-01-28T00:19:12.483Z,21.67
2018-01-28T00:21:38.424Z,29.25
2018-01-28T00:24:04.375Z,23.87
2018-01-28T00:26:30.351Z,31.48
2018-01-28T00:28:56.287Z,19.75
2018-01-28T00:31:22.524Z,22.80
2018-01-28T00:33:48.459Z,18.20
2018-01-28T00:36:15.180Z,18.70
2018-01-28T00:38:41.121Z,17.77
2018-01-28T00:41:07.842Z,17.57
2018-01-28T00:43:33.777Z,18.52
2018-01-28T00:46:00.460Z,18.90
2018-01-28T00:48:26.542Z,20.85
2018-01-28T00:50:53.222Z,20.33
2018-01-28T00:53:19.209Z,20.42
2018-01-28T00:55:45.896Z,20.62
2018-01-28T00:58:11.868Z,20.77
2018-01-28T01:00:38.556Z,19.80
2018-01-28T01:03:04.500Z,21.50
2018-01-28T01:05:30.615Z,20.85
2018-01-28T01:07:56.569Z,21.20
2018-01-28T01:10:23.283Z,21.08
2018-01-28T01:12:49.212Z,22.15
2018-01-28T01:15:15.205Z,19.30
2018-01-28T01:17:41.179Z,18.90
2018-01-28T01:20:07.119Z,20.88
2018-01-28T01:22:33.199Z,20.00
2018-01-28T01:24:59.288Z,20.30
2018-01-28T01:27:25.222Z,18.92
2018-01-28T01:29:51.227Z,19.20
2018-01-28T01:32:17.180Z,19.70
2018-01-28T01:34:43.155Z,19.73
2018-01-28T01:37:09.097Z,19.20
2018-01-28T01:39:35.176Z,19.73
2018-01-28T01:42:01.856Z,19.12
2018-01-28T01:44:27.853Z,19.48
2018-01-28T01:46:54.533Z,20.65
2018-01-28T01:49:20.484Z,19.60
2018-01-28T01:51:46.467Z,19.25
2018-01-28T01:54:12.414Z,21.17
2018-01-28T01:56:38.524Z,19.17
2018-01-28T01:59:04.468Z,19.67
2018-01-28T02:01:30.463Z,19.07
2018-01-28T02:03:56.423Z,21.83
2018-01-28T02:06:22.370Z,21.25
2018-01-28T02:08:48.334Z,21.05
2018-01-28T02:11:14.278Z,21.20
2018-01-28T02:13:40.384Z,21.83
2018-01-28T02:16:06.329Z,21.90
2018-01-28T02:18:32.287Z,23.03
2018-01-28T02:20:58.240Z,20.92
2018-01-28T02:23:24.240Z,21.60
2018-01-28T02:25:50.344Z,21.15
2018-01-28T02:28:17.033Z,20.58
2018-01-28T02:30:43.136Z,21.27
2018-01-28T02:33:09.104Z,20.00
2018-01-28T02:35:35.084Z,19.27
2018-01-28T02:38:01.020Z,18.98
2018-01-28T02:40:26.975Z,20.37
2018-01-28T02:42:52.956Z,20.85
2018-01-28T02:45:18.904Z,20.42
2018-01-28T02:47:44.911Z,20.20
2018-01-28T02:50:10.835Z,20.12
2018-01-28T02:52:36.836Z,19.37
2018-01-28T02:55:02.765Z,19.98
2018-01-28T02:57:28.708Z,17.97
2018-01-28T02:59:54.685Z,21.10
2018-01-28T03:02:20.628Z,19.45
2018-01-28T03:04:46.712Z,19.03
2018-01-28T03:07:13.432Z,19.35
2018-01-28T03:09:39.411Z,19.10
2018-01-28T03:12:05.344Z,18.87
2018-01-28T03:14:31.321Z,18.23
2018-01-28T03:16:58.006Z,19.20
2018-01-28T03:19:23.960Z,18.95
2018-01-28T03:21:50.059Z,18.55
2018-01-28T03:24:16.162Z,18.48
2018-01-28T03:26:42.138Z,19.80
2018-01-28T03:29:08.071Z,18.00
2018-01-28T03:31:34.013Z,18.30
2018-01-28T03:34:00.804Z,19.40
2018-01-28T03:36:26.728Z,18.23
2018-01-28T03:38:52.807Z,17.23
2018-01-28T03:41:18.751Z,17.25
2018-01-28T03:43:44.703Z,16.57
2018-01-28T03:46:10.667Z,17.10
2018-01-28T03:48:36.651Z,16.10
2018-01-28T03:51:02.580Z,16.37
2018-01-28T03:53:28.515Z,16.23
2018-01-28T03:55:55.322Z,15.93
2018-01-28T03:58:21.267Z,17.85
2018-01-28T04:00:47.987Z,15.63
2018-01-28T04:03:13.940Z,16.17
2018-01-28T04:05:40.636Z,16.52
2018-01-28T04:08:06.592Z,16.05
2018-01-28T04:10:33.304Z,16.00
2018-01-28T04:12:59.379Z,15.13
2018-01-28T04:15:25.311Z,14.43
2018-01-28T04:17:51.280Z,13.00
2018-01-28T04:20:17.216Z,14.93
2018-01-28T04:22:43.188Z,14.13
2018-01-28T04:25:09.274Z,14.25
2018-01-28T04:27:35.955Z,13.48
2018-01-28T04:30:02.016Z,12.95
2018-01-28T04:32:27.958Z,11.55
2018-01-28T04:34:54.663Z,12.20
2018-01-28T04:37:20.596Z,12.98
2018-01-28T04:39:46.562Z,11.40
2018-01-28T04:42:12.495Z,12.80
2018-01-28T04:44:38.433Z,11.40
2018-01-28T04:47:04.509Z,11.70
2018-01-28T04:49:31.178Z,11.15
2018-01-28T04:51:57.156Z,11.00
2018-01-28T04:54:23.123Z,11.12
2018-01-28T04:56:49.095Z,10.40
2018-01-28T04:59:15.080Z,10.57
2018-01-28T05:01:41.073Z,10.60
2018-01-28T05:04:07.170Z,9.90
2018-01-28T05:06:33.892Z,10.15
2018-01-28T05:08:59.820Z,10.20
2018-01-28T05:11:33.451Z,9.43
2018-01-28T05:14:00.171Z,9.32
2018-01-28T05:16:26.137Z,9.88
2018-01-28T05:18:55.158Z,9.65
2018-01-28T05:21:21.316Z,8.82
2018-01-28T05:23:48.428Z,9.48
2018-01-28T05:26:15.975Z,8.68
2018-01-28T05:28:42.292Z,8.73
2018-01-28T05:31:08.223Z,8.05
2018-01-28T05:33:34.217Z,9.40
2018-01-28T05:36:00.152Z,8.23
2018-01-28T05:38:26.105Z,7.77
2018-01-28T05:40:52.254Z,8.07
2018-01-28T05:43:18.188Z,9.00
2018-01-28T05:45:44.143Z,8.43
2018-01-28T05:48:10.826Z,8.20
2018-01-28T05:50:36.811Z,8.43
2018-01-28T05:53:02.733Z,8.15
2018-01-28T05:55:28.659Z,8.93
2018-01-28T05:57:54.719Z,8.33
2018-01-28T06:00:20.657Z,8.18
2018-01-28T06:02:46.616Z,8.30
2018-01-28T06:05:12.563Z,8.13
2018-01-28T06:07:38.536Z,8.63
2018-01-28T06:10:05.226Z,9.27
2018-01-28T06:12:31.168Z,7.95
2018-01-28T06:14:57.265Z,7.20
2018-01-28T06:17:23.196Z,8.02
2018-01-28T06:19:49.163Z,8.20
2018-01-28T06:22:15.095Z,8.13
2018-01-28T06:24:41.169Z,8.00
2018-01-28T06:27:07.134Z,7.45
2018-01-28T06:29:33.816Z,7.80
2018-01-28T06:31:59.915Z,7.43
2018-01-28T06:34:25.853Z,8.80
2018-01-28T06:36:51.830Z,7.63
2018-01-28T06:39:17.797Z,7.12
2018-01-28T06:41:43.766Z,8.60
2018-01-28T06:44:09.723Z,7.68
2018-01-28T06:46:35.690Z,7.05
2018-01-28T06:49:01.797Z,7.30
2018-01-28T06:51:27.740Z,9.00
2018-01-28T06:53:53.733Z,8.23
2018-01-28T06:56:19.679Z,8.23
2018-01-28T06:58:45.631Z,7.50
2018-01-28T07:01:12.357Z,7.43
2018-01-28T07:03:38.299Z,7.90
2018-01-28T07:06:05.129Z,7.40
2018-01-28T07:08:31.056Z,7.82
2018-01-28T07:10:57.784Z,7.13
2018-01-28T07:13:23.731Z,7.10
2018-01-28T07:15:50.399Z,7.17
2018-01-28T07:18:16.355Z,6.85
2018-01-28T07:20:42.456Z,7.60
2018-01-28T07:23:08.432Z,7.65
2018-01-28T07:25:35.261Z,7.00
2018-01-28T07:28:01.235Z,6.72
2018-01-28T07:30:27.163Z,7.43
2018-01-28T07:32:53.159Z,6.50
2018-01-28T07:35:19.105Z,6.65
2018-01-28T07:37:45.053Z,6.50
2018-01-28T07:40:11.167Z,6.70
2018-01-28T07:42:37.738Z,6.40
2018-01-28T07:45:08.845Z,6.32
2018-01-28T07:47:36.001Z,6.05
2018-01-28T07:50:05.760Z,7.47
2018-01-28T07:52:37.277Z,7.28
2018-01-28T07:55:03.910Z,8.90
2018-01-28T07:57:35.659Z,9.93
2018-01-28T08:00:02.505Z,13.00
2018-01-28T08:02:29.504Z,45.30
2018-01-28T08:04:57.682Z,60.97
2018-01-28T08:07:28.772Z,20.70
2018-01-28T08:09:54.723Z,18.12
2018-01-28T08:12:31.903Z,12.27
2018-01-28T08:15:07.293Z,8.73
2018-01-28T08:17:44.844Z,7.60
2018-01-28T08:20:19.003Z,6.03
2018-01-28T08:23:01.606Z,5.50
2018-01-28T08:25:35.846Z,5.87
2018-01-28T08:28:09.945Z,5.68
2018-01-28T08:30:48.540Z,5.50
2018-01-28T08:33:14.733Z,5.85
2018-01-28T08:35:41.464Z,5.60
2018-01-28T08:38:07.411Z,6.20
2018-01-28T08:40:34.168Z,5.20
2018-01-28T08:43:00.092Z,5.07
2018-01-28T08:45:26.125Z,5.30
2018-01-28T08:47:52.182Z,4.95
2018-01-28T08:50:18.126Z,4.75
2018-01-28T08:52:44.862Z,4.57
2018-01-28T08:55:10.837Z,4.50
2018-01-28T08:57:36.832Z,5.62
2018-01-28T09:00:03.407Z,4.30
2018-01-28T09:02:38.569Z,4.70
2018-01-28T09:05:04.665Z,5.00
2018-01-28T09:07:32.839Z,4.32
2018-01-28T09:09:59.552Z,4.60
2018-01-28T09:12:25.507Z,4.45
2018-01-28T09:14:51.493Z,4.80
2018-01-28T09:17:17.469Z,4.57
2018-01-28T09:19:43.613Z,5.10
2018-01-28T09:22:10.306Z,4.90
2018-01-28T09:24:36.446Z,4.47
2018-01-28T09:27:02.450Z,4.70
2018-01-28T09:29:28.435Z,4.82
2018-01-28T09:31:54.432Z,5.28
2018-01-28T09:34:20.375Z,4.07
2018-01-28T09:36:47.089Z,4.60
2018-01-28T09:39:13.742Z,3.60
2018-01-28T09:41:40.487Z,3.95
2018-01-28T09:44:07.487Z,4.55
2018-01-28T09:46:33.522Z,3.75
2018-01-28T09:49:03.329Z,3.50
2018-01-28T09:51:29.345Z,3.60
2018-01-28T09:53:55.413Z,3.50
2018-01-28T09:56:22.481Z,3.58
2018-01-28T09:58:48.702Z,3.10
2018-01-28T10:01:15.476Z,3.20
2018-01-28T10:03:41.502Z,3.90
2018-01-28T10:06:07.549Z,4.00
2018-01-28T10:08:33.587Z,3.30
2018-01-28T10:10:59.578Z,3.33
2018-01-28T10:13:25.742Z,3.25
2018-01-28T10:15:52.747Z,2.92
2018-01-28T10:18:20.039Z,3.25
2018-01-28T10:20:46.953Z,2.65
2018-01-28T10:23:13.777Z,2.67
2018-01-28T10:25:39.951Z,2.35
2018-01-28T10:28:08.411Z,2.70
2018-01-28T10:30:34.820Z,2.75
2018-01-28T10:33:00.859Z,2.70
2018-01-28T10:35:27.105Z,2.70
2018-01-28T10:37:53.974Z,2.30
2018-01-28T10:40:20.068Z,3.35
2018-01-28T10:42:48.020Z,2.75
2018-01-28T10:45:14.213Z,2.30
2018-01-28T10:47:40.813Z,2.85
2018-01-28T10:50:07.943Z,2.22
2018-01-28T10:52:34.235Z,2.60
2018-01-28T10:55:00.470Z,2.90
2018-01-28T10:57:26.974Z,2.40
2018-01-28T10:59:54.051Z,2.95
2018-01-28T11:02:21.259Z,2.22
2018-01-28T11:04:47.678Z,2.22
2018-01-28T11:07:13.985Z,2.78
2018-01-28T11:09:41.930Z,2.20
2018-01-28T11:12:08.838Z,2.70
2018-01-28T11:14:36.623Z,1.90
2018-01-28T11:17:02.674Z,2.10
2018-01-28T11:19:28.989Z,1.90
2018-01-28T11:21:56.927Z,2.70
2018-01-28T11:24:26.160Z,2.33
2018-01-28T11:26:55.234Z,2.45
2018-01-28T11:29:21.268Z,1.75
2018-01-28T11:31:48.744Z,2.37
2018-01-28T11:34:15.226Z,2.30
2018-01-28T11:36:41.608Z,2.72
2018-01-28T11:39:09.672Z,2.45
2018-01-28T11:41:35.913Z,3.47
2018-01-28T11:44:02.773Z,2.70
2018-01-28T11:46:31.454Z,2.53
2018-01-28T11:48:58.405Z,2.28
2018-01-28T11:51:24.661Z,2.58
2018-01-28T11:53:51.551Z,2.15
2018-01-28T11:56:17.524Z,2.10
2018-01-28T11:58:43.807Z,2.12
2018-01-28T12:01:11.804Z,2.47
2018-01-28T12:03:39.855Z,2.20
2018-01-28T12:06:06.784Z,2.30
2018-01-28T12:08:34.757Z,2.30
2018-01-28T12:11:02.145Z,2.08
2018-01-28T12:13:34.221Z,2.25
2018-01-28T12:16:11.183Z,2.60
2018-01-28T12:18:38.491Z,1.70
2018-01-28T12:21:06.361Z,7.82
2018-01-28T12:23:32.612Z,2.30
2018-01-28T12:25:58.909Z,1.98
2018-01-28T12:28:26.109Z,2.03
2018-01-28T12:30:52.105Z,1.73
2018-01-28T12:33:18.112Z,2.05
2018-01-28T12:35:44.486Z,2.00
2018-01-28T12:38:10.540Z,1.90
2018-01-28T12:40:37.874Z,1.98
2018-01-28T12:43:06.179Z,1.92
2018-01-28T12:45:35.709Z,2.03
2018-01-28T12:48:02.317Z,2.05
2018-01-28T12:50:28.326Z,1.90
2018-01-28T12:52:57.684Z,2.00
2018-01-28T12:55:25.257Z,2.65
2018-01-28T12:57:54.833Z,1.98
2018-01-28T13:00:23.136Z,2.28
2018-01-28T13:02:52.841Z,1.90
2018-01-28T13:05:22.467Z,2.50
2018-01-28T13:07:53.604Z,2.30
2018-01-28T13:10:27.109Z,2.25
2018-01-28T13:12:54.513Z,2.75
2018-01-28T13:15:24.305Z,1.90
2018-01-28T13:17:55.360Z,1.87
2018-01-28T13:20:23.675Z,1.90
2018-01-28T13:22:54.889Z,1.75
2018-01-28T13:25:25.452Z,2.10
2018-01-28T13:27:53.679Z,1.87
2018-01-28T13:30:27.872Z,1.90
2018-01-28T13:32:55.616Z,1.62
2018-01-28T13:35:24.809Z,1.73
2018-01-28T13:37:54.565Z,1.73
2018-01-28T13:40:23.082Z,1.65
2018-01-28T13:42:51.385Z,1.70
2018-01-28T13:45:21.352Z,1.70
2018-01-28T13:47:51.511Z,1.58
2018-01-28T13:50:19.660Z,1.75
2018-01-28T13:52:49.702Z,1.58
2018-01-28T13:55:17.340Z,1.87
2018-01-28T13:57:44.426Z,1.95
2018-01-28T14:00:14.536Z,1.70
2018-01-28T14:02:42.864Z,1.52
2018-01-28T14:05:12.831Z,1.90
2018-01-28T14:07:41.439Z,1.90
2018-01-28T14:10:11.079Z,1.48
2018-01-28T14:12:40.633Z,1.70
2018-01-28T14:15:09.416Z,1.70
2018-01-28T14:17:37.558Z,1.42
2018-01-28T14:20:06.768Z,1.77
2018-01-28T14:22:34.846Z,1.70
2018-01-28T14:25:03.236Z,1.92
2018-01-28T14:27:32.422Z,2.22
2018-01-28T14:30:01.805Z,1.60
2018-01-28T14:32:30.399Z,1.55
2018-01-28T14:34:58.602Z,1.60
2018-01-28T14:37:27.098Z,1.70
2018-01-28T14:39:56.788Z,1.80
2018-01-28T14:42:24.756Z,1.60
2018-01-28T14:44:52.363Z,1.80
2018-01-28T14:47:19.438Z,1.45
2018-01-28T14:49:46.891Z,1.70
2018-01-28T14:52:15.906Z,1.60
2018-01-28T14:54:44.983Z,1.40
2018-01-28T14:57:15.028Z,1.70
2018-01-28T14:59:42.587Z,1.60
2018-01-28T15:02:11.584Z,17.20
2018-01-28T15:04:58.794Z,13.30
2018-01-28T15:07:30.878Z,25.92
2018-01-28T15:09:59.150Z,7.82
2018-01-28T15:12:28.549Z,1.90
2018-01-28T15:14:57.045Z,3.00
2018-01-28T15:17:25.205Z,2.08
2018-01-28T15:37:36.274Z,2.37
2018-01-28T15:40:02.246Z,8.07
2018-01-28T15:42:28.707Z,4.70
2018-01-28T15:44:55.920Z,2.80
2018-01-28T19:11:34.453Z,8.18
2018-01-28T19:14:00.456Z,9.95
2018-01-28T19:16:26.417Z,8.60
2018-01-28T19:19:36.720Z,8.05
2018-01-28T19:22:02.956Z,6.20
2018-01-28T19:24:28.962Z,6.28
2018-01-28T19:26:54.935Z,6.03
2018-01-28T19:29:20.924Z,6.07
2018-01-28T19:31:46.920Z,5.70
2018-01-28T19:34:13.759Z,5.15
2018-01-28T19:36:40.466Z,6.18
2018-01-28T19:39:06.466Z,6.97
2018-01-28T19:41:32.443Z,6.50
2018-01-28T19:43:59.167Z,6.80
2018-01-28T19:46:25.928Z,6.30
2018-01-28T19:48:52.637Z,6.28
2018-01-28T19:51:18.742Z,5.80
2018-01-28T19:53:44.715Z,6.15
2018-01-28T19:56:11.436Z,7.55
2018-01-28T19:58:37.403Z,8.20
2018-01-28T20:01:03.367Z,8.57
2018-01-28T20:03:29.353Z,7.00
2018-01-28T20:05:55.491Z,6.57
2018-01-28T20:08:21.477Z,6.55
2018-01-28T20:10:47.473Z,7.82
2018-01-28T20:13:13.423Z,7.53
2018-01-28T20:15:39.423Z,8.10
2018-01-28T20:18:06.104Z,8.35
2018-01-28T20:20:32.085Z,12.35
2018-01-28T20:23:07.913Z,9.98
2018-01-28T20:25:41.902Z,8.80
2018-01-28T20:28:15.405Z,8.68
2018-01-28T20:30:49.016Z,7.22
2018-01-28T20:33:38.619Z,8.98
2018-01-28T20:36:28.542Z,6.20
2018-01-28T20:39:18.523Z,6.45
2018-01-28T20:42:08.665Z,6.18
2018-01-28T20:44:58.157Z,6.15
2018-01-28T20:47:48.462Z,5.93
2018-01-28T20:50:38.195Z,7.35
2018-01-28T20:53:27.432Z,7.82
2018-01-28T20:56:16.525Z,6.75
2018-01-28T20:59:06.139Z,5.62
2018-01-28T21:01:57.073Z,5.10
2018-01-28T21:04:47.588Z,6.32
2018-01-28T21:07:37.387Z,6.10
2018-01-28T21:10:27.550Z,5.65
2018-01-28T21:13:16.861Z,5.25
2018-01-28T21:16:06.438Z,4.53
2018-01-28T21:18:32.702Z,5.10
2018-01-28T21:20:59.395Z,6.10
2018-01-28T21:23:25.350Z,5.45
2018-01-28T21:25:52.093Z,5.83
2018-01-28T21:28:18.789Z,6.55
2018-01-28T21:30:44.783Z,5.57
2018-01-28T21:33:10.959Z,6.60
2018-01-28T21:35:37.009Z,7.00
2018-01-28T21:38:03.680Z,7.53
2018-01-28T21:40:29.675Z,8.10
2018-01-28T21:42:56.422Z,7.32
2018-01-28T21:45:22.392Z,8.05
2018-01-28T21:47:48.504Z,8.07
2018-01-28T21:50:14.436Z,8.55
2018-01-28T21:52:40.385Z,8.37
2018-01-28T21:55:06.370Z,7.10
2018-01-28T21:57:32.331Z,6.90
2018-01-28T21:59:59.055Z,6.20
2018-01-28T22:02:25.004Z,5.82
2018-01-28T22:04:51.854Z,6.17
2018-01-28T22:07:17.793Z,4.72
2018-01-28T22:09:43.728Z,4.70
2018-01-28T22:12:09.717Z,5.67
2018-01-28T22:14:35.668Z,6.00
2018-01-28T22:17:01.660Z,5.67
2018-01-28T22:19:28.348Z,5.20
2018-01-28T22:21:54.303Z,7.55
2018-01-28T22:24:20.299Z,6.50
2018-01-28T22:26:46.260Z,5.55
2018-01-28T22:29:13.136Z,5.90
2018-01-28T22:31:39.068Z,5.70
2018-01-28T22:34:05.016Z,4.40
2018-01-28T22:36:31.013Z,4.27
2018-01-28T22:38:56.983Z,4.25
2018-01-28T22:41:23.683Z,4.57
2018-01-28T22:43:49.647Z,4.07
2018-01-28T22:46:16.348Z,3.80
2018-01-28T22:48:42.462Z,4.43
2018-01-28T22:51:08.411Z,4.05
2018-01-28T22:53:34.457Z,4.00
2018-01-28T22:56:01.147Z,4.12
2018-01-28T22:58:27.102Z,3.78
2018-01-28T23:00:53.067Z,3.83
2018-01-28T23:03:19.023Z,4.20
2018-01-28T23:05:44.991Z,4.07
2018-01-28T23:08:11.685Z,4.10
2018-01-28T23:10:37.804Z,4.05
2018-01-28T23:13:03.747Z,3.37
2018-01-28T23:15:29.691Z,4.00
2018-01-28T23:17:56.420Z,4.30
2018-01-28T23:20:23.104Z,3.83
2018-01-28T23:22:49.048Z,4.32
2018-01-28T23:25:15.139Z,4.00
2018-01-28T23:27:41.096Z,3.83
2018-01-28T23:30:07.159Z,3.93
2018-01-28T23:32:33.844Z,4.37
2018-01-28T23:34:59.822Z,4.68
2018-01-28T23:37:25.800Z,3.90
2018-01-28T23:39:51.770Z,4.15
2018-01-28T23:42:17.714Z,4.40
2018-01-28T23:44:43.659Z,4.20
2018-01-28T23:47:09.799Z,3.93
2018-01-28T23:49:35.765Z,3.40
2018-01-28T23:52:02.435Z,4.03
2018-01-28T23:54:28.389Z,4.40
2018-01-28T23:56:54.455Z,4.40
2018-01-28T23:59:20.402Z,4.60
